createdAt,value
2023-10-13T00:02:01.040Z,22.16
2023-10-13T00:04:36.701Z,22.21
2023-10-13T00:07:05.501Z,22.19
2023-10-13T00:09:34.260Z,22.24
2023-10-13T00:12:02.149Z,22.26
2023-10-13T00:14:34.513Z,22.25
2023-10-13T00:17:06.002Z,22.29
2023-10-13T00:19:39.514Z,22.34
2023-10-13T00:22:12.963Z,22.32
2023-10-13T00:24:48.726Z,22.34
2023-10-13T00:27:34.631Z,22.31
2023-10-13T00:30:19.009Z,22.27
2023-10-13T00:32:55.860Z,22.31
2023-10-13T00:35:29.480Z,22.30
2023-10-13T00:37:56.566Z,22.09
2023-10-13T00:40:41.328Z,22.23
2023-10-13T00:43:23.128Z,22.21
2023-10-13T00:45:58.299Z,22.23
2023-10-13T00:48:30.447Z,22.25
2023-10-13T00:51:00.479Z,22.27
2023-10-13T00:53:30.005Z,22.25
2023-10-13T00:55:57.134Z,22.27
2023-10-13T00:58:28.621Z,22.26
2023-10-13T01:00:57.877Z,22.25
2023-10-13T01:03:28.431Z,22.27
2023-10-13T01:05:56.032Z,22.25
2023-10-13T01:08:39.075Z,22.29
2023-10-13T01:11:08.483Z,22.29
2023-10-13T01:13:37.563Z,22.32
2023-10-13T01:16:08.427Z,22.31
2023-10-13T01:18:50.926Z,22.29
2023-10-13T01:21:20.740Z,22.30
2023-10-13T01:23:52.156Z,22.29
2023-10-13T01:26:24.794Z,22.31
2023-10-13T01:28:55.426Z,22.30
2023-10-13T01:31:30.302Z,22.30
2023-10-13T01:34:00.814Z,22.18
2023-10-13T01:36:27.745Z,22.29
2023-10-13T01:38:57.006Z,22.29
2023-10-13T01:41:23.801Z,22.26
2023-10-13T01:43:52.847Z,22.29
2023-10-13T01:46:23.315Z,22.20
2023-10-13T01:48:55.443Z,22.12
2023-10-13T01:51:24.327Z,22.28
2023-10-13T01:53:57.405Z,22.25
2023-10-13T01:56:26.018Z,22.00
2023-10-13T01:58:54.762Z,22.19
2023-10-13T02:01:27.800Z,22.21
2023-10-13T02:04:04.727Z,22.22
2023-10-13T02:06:35.056Z,22.18
2023-10-13T02:09:11.386Z,21.83
2023-10-13T02:11:40.230Z,22.16
2023-10-13T02:14:08.082Z,21.82
2023-10-13T02:16:37.947Z,22.15
2023-10-13T02:19:06.101Z,22.13
2023-10-13T02:21:33.046Z,22.12
2023-10-13T02:24:05.091Z,22.08
2023-10-13T02:26:32.206Z,22.13
2023-10-13T02:29:04.338Z,22.12
2023-10-13T02:31:32.436Z,22.12
2023-10-13T02:34:01.043Z,22.08
2023-10-13T02:36:38.119Z,22.08
2023-10-13T02:39:08.723Z,22.08
2023-10-13T02:41:38.182Z,22.06
2023-10-13T02:44:08.826Z,22.08
2023-10-13T02:46:37.485Z,21.82
2023-10-13T02:49:12.166Z,22.01
2023-10-13T02:51:43.148Z,21.98
2023-10-13T02:54:12.499Z,21.96
2023-10-13T02:56:42.528Z,21.93
2023-10-13T02:59:13.477Z,21.86
2023-10-13T03:01:40.231Z,21.86
2023-10-13T03:04:10.003Z,21.81
2023-10-13T03:06:37.039Z,21.73
2023-10-13T03:09:16.029Z,21.59
2023-10-13T03:11:43.703Z,21.56
2023-10-13T03:14:25.124Z,21.48
2023-10-13T03:16:54.366Z,21.44
2023-10-13T03:19:22.208Z,21.43
2023-10-13T03:21:56.342Z,21.37
2023-10-13T03:24:34.575Z,21.39
2023-10-13T03:27:09.943Z,21.39
2023-10-13T03:29:40.361Z,21.41
2023-10-13T03:32:12.794Z,21.35
2023-10-13T03:34:55.897Z,21.42
2023-10-13T03:37:39.090Z,21.42
2023-10-13T03:40:29.984Z,21.37
2023-10-13T03:43:05.542Z,21.39
2023-10-13T03:45:40.496Z,21.37
2023-10-13T03:48:12.782Z,21.40
2023-10-13T03:50:48.654Z,21.40
2023-10-13T03:53:16.421Z,21.45
2023-10-13T03:55:49.517Z,21.43
2023-10-13T03:58:18.021Z,21.41
2023-10-13T04:00:47.446Z,21.44
2023-10-13T04:03:18.338Z,21.45
2023-10-13T04:06:07.663Z,21.43
2023-10-13T04:08:49.799Z,21.46
2023-10-13T04:11:34.949Z,21.48
2023-10-13T04:14:20.334Z,21.49
2023-10-13T04:16:55.909Z,21.52
2023-10-13T04:19:30.397Z,21.56
2023-10-13T04:22:00.186Z,21.61
2023-10-13T04:24:46.184Z,21.45
2023-10-13T04:27:46.197Z,21.65
2023-10-13T04:30:26.623Z,21.70
2023-10-13T04:33:09.809Z,21.77
2023-10-13T04:35:48.654Z,21.78
2023-10-13T04:38:21.405Z,21.85
2023-10-13T04:41:02.624Z,21.85
2023-10-13T04:43:56.124Z,21.91
2023-10-13T04:46:37.124Z,21.88
2023-10-13T04:49:27.996Z,21.96
2023-10-13T04:52:02.075Z,21.97
2023-10-13T04:54:34.828Z,21.98
2023-10-13T04:57:16.740Z,22.01
2023-10-13T05:00:08.869Z,21.95
2023-10-13T05:02:57.077Z,21.84
2023-10-13T05:08:20.166Z,21.96
2023-10-13T05:11:05.417Z,21.98
2023-10-13T05:13:50.867Z,21.96
2023-10-13T05:16:50.853Z,21.97
2023-10-13T05:19:36.134Z,21.98
2023-10-13T05:22:21.556Z,21.98
2023-10-13T05:25:08.153Z,21.92
2023-10-13T05:27:53.708Z,21.95
2023-10-13T05:30:39.086Z,21.86
2023-10-13T05:33:24.401Z,21.76
2023-10-13T05:36:09.840Z,21.74
2023-10-13T05:38:55.129Z,21.74
2023-10-13T05:41:42.060Z,21.66
2023-10-13T05:44:27.494Z,21.65
2023-10-13T05:47:35.108Z,21.61
2023-10-13T05:50:06.776Z,21.60
2023-10-13T05:52:52.094Z,21.55
2023-10-13T05:55:37.623Z,21.51
2023-10-13T05:58:24.383Z,21.50
2023-10-13T06:01:09.684Z,21.49
2023-10-13T06:03:54.892Z,21.48
2023-10-13T06:06:40.195Z,21.46
2023-10-13T06:09:25.900Z,21.50
2023-10-13T06:12:11.223Z,21.49
2023-10-13T06:14:57.837Z,21.51
2023-10-13T06:17:43.067Z,21.39
2023-10-13T06:20:29.156Z,21.55
2023-10-13T06:23:14.356Z,21.60
2023-10-13T06:25:59.833Z,21.62
2023-10-13T06:28:43.033Z,21.62
2023-10-13T06:31:22.877Z,21.62
2023-10-13T06:33:51.290Z,21.68
2023-10-13T06:36:20.030Z,21.73
2023-10-13T06:38:56.494Z,21.74
2023-10-13T06:41:35.688Z,21.75
2023-10-13T06:44:06.412Z,21.75
2023-10-13T06:46:36.193Z,21.74
2023-10-13T06:49:04.184Z,21.77
2023-10-13T06:51:39.030Z,21.15
2023-10-13T06:54:11.838Z,21.77
2023-10-13T06:56:41.685Z,21.74
2023-10-13T06:59:09.418Z,21.75
2023-10-13T07:01:41.551Z,21.78
2023-10-13T07:04:14.508Z,21.77
2023-10-13T07:06:45.605Z,21.78
2023-10-13T07:09:30.587Z,21.82
2023-10-13T07:12:02.223Z,21.88
2023-10-13T07:14:30.051Z,21.84
2023-10-13T07:17:00.419Z,21.89
2023-10-13T07:19:29.361Z,21.98
2023-10-13T07:21:59.839Z,22.02
2023-10-13T07:24:33.007Z,22.12
2023-10-13T07:27:06.182Z,22.17
2023-10-13T07:29:36.601Z,22.22
2023-10-13T07:32:13.820Z,22.25
2023-10-13T07:34:41.868Z,22.32
2023-10-13T07:37:17.258Z,22.37
2023-10-13T07:39:45.253Z,22.41
2023-10-13T07:42:20.637Z,22.41
2023-10-13T07:44:48.494Z,22.53
2023-10-13T07:47:19.332Z,22.57
2023-10-13T07:49:51.911Z,22.60
2023-10-13T07:52:38.224Z,22.67
2023-10-13T07:55:21.207Z,22.74
2023-10-13T07:58:01.057Z,22.89
2023-10-13T08:00:40.141Z,22.99
2023-10-13T08:03:22.116Z,23.10
2023-10-13T08:05:59.521Z,23.17
2023-10-13T08:08:36.408Z,23.31
2023-10-13T08:11:09.766Z,23.35
2023-10-13T08:13:48.168Z,23.41
2023-10-13T08:16:24.372Z,23.49
2023-10-13T08:18:53.497Z,23.52
2023-10-13T08:21:24.177Z,23.59
2023-10-13T08:24:07.177Z,23.66
2023-10-13T08:26:51.623Z,23.75
2023-10-13T08:29:36.756Z,23.87
2023-10-13T08:32:21.208Z,24.04
2023-10-13T08:35:11.373Z,24.25
2023-10-13T08:38:08.558Z,24.47
2023-10-13T08:41:05.665Z,24.91
2023-10-13T08:43:44.792Z,25.24
2023-10-13T08:46:25.864Z,26.25
2023-10-13T08:49:07.979Z,27.53
2023-10-13T08:51:46.505Z,28.62
2023-10-13T08:54:20.671Z,29.32
2023-10-13T08:56:56.748Z,30.40
2023-10-13T08:59:34.723Z,31.07
2023-10-13T09:02:17.832Z,31.48
2023-10-13T09:04:46.067Z,31.40
2023-10-13T09:07:23.312Z,31.87
2023-10-13T09:10:14.634Z,32.23
2023-10-13T09:13:01.694Z,31.74
2023-10-13T09:15:46.841Z,31.06
2023-10-13T09:18:20.056Z,30.40
2023-10-13T09:20:47.280Z,30.09
2023-10-13T09:23:26.082Z,30.43
2023-10-13T09:25:59.413Z,31.43
2023-10-13T09:28:29.380Z,32.64
2023-10-13T09:30:58.349Z,33.75
2023-10-13T09:33:30.572Z,34.34
2023-10-13T09:36:00.516Z,34.80
2023-10-13T09:38:29.862Z,35.17
2023-10-13T09:40:59.344Z,35.37
2023-10-13T09:43:27.802Z,35.30
2023-10-13T09:46:03.365Z,34.30
2023-10-13T09:48:34.016Z,33.15
2023-10-13T09:51:02.987Z,32.89
2023-10-13T09:53:31.899Z,33.52
2023-10-13T09:56:12.419Z,34.09
2023-10-13T09:58:48.651Z,34.78
2023-10-13T10:01:21.903Z,35.38
2023-10-13T10:04:09.310Z,35.74
2023-10-13T10:06:44.902Z,36.79
2023-10-13T10:09:13.234Z,37.44
2023-10-13T10:12:19.744Z,37.52
2023-10-13T10:14:59.475Z,37.28
2023-10-13T10:17:30.667Z,36.82
2023-10-13T10:19:58.598Z,36.92
2023-10-13T10:22:29.175Z,36.53
2023-10-13T10:25:00.402Z,36.83
2023-10-13T10:27:30.351Z,36.92
2023-10-13T10:29:58.405Z,37.12
2023-10-13T10:32:41.504Z,37.24
2023-10-13T10:35:11.048Z,37.08
2023-10-13T10:37:40.741Z,36.76
2023-10-13T10:40:20.546Z,36.62
2023-10-13T10:42:53.792Z,36.26
2023-10-13T10:45:24.010Z,36.05
2023-10-13T10:47:59.307Z,35.55
2023-10-13T10:50:36.155Z,35.96
2023-10-13T10:53:09.845Z,36.08
2023-10-13T10:55:39.594Z,36.84
2023-10-13T10:58:07.804Z,37.41
2023-10-13T11:00:47.222Z,38.14
2023-10-13T11:03:15.951Z,38.72
2023-10-13T11:05:47.453Z,39.25
2023-10-13T11:08:32.648Z,40.29
2023-10-13T11:11:05.178Z,40.98
2023-10-13T11:13:51.693Z,41.26
2023-10-13T11:16:26.177Z,41.03
2023-10-13T11:19:03.155Z,41.51
2023-10-13T11:21:32.762Z,41.02
2023-10-13T11:24:09.782Z,39.48
2023-10-13T11:26:49.233Z,38.28
2023-10-13T11:29:19.970Z,37.11
2023-10-13T11:31:54.678Z,36.31
2023-10-13T11:34:22.891Z,36.26
2023-10-13T11:36:50.854Z,36.03
2023-10-13T11:39:23.914Z,35.35
2023-10-13T11:41:55.932Z,34.52
2023-10-13T11:44:26.139Z,33.92
2023-10-13T11:47:08.560Z,33.45
2023-10-13T11:49:38.601Z,33.13
2023-10-13T11:52:26.322Z,33.19
2023-10-13T11:54:54.186Z,34.76
2023-10-13T11:57:23.648Z,36.14
2023-10-13T12:00:20.108Z,36.35
2023-10-13T12:03:05.577Z,35.69
2023-10-13T12:05:50.300Z,34.97
2023-10-13T12:08:23.722Z,34.08
2023-10-13T12:11:01.242Z,33.65
2023-10-13T12:13:31.584Z,33.05
2023-10-13T12:15:59.464Z,32.58
2023-10-13T12:18:29.157Z,32.08
2023-10-13T12:20:58.345Z,31.71
2023-10-13T12:23:32.583Z,31.37
2023-10-13T12:26:01.671Z,30.99
2023-10-13T12:28:32.572Z,30.79
2023-10-13T12:31:08.385Z,30.55
2023-10-13T12:33:41.334Z,30.31
2023-10-13T12:36:11.965Z,30.09
2023-10-13T12:38:52.200Z,29.89
2023-10-13T12:41:37.924Z,29.75
2023-10-13T12:44:25.249Z,29.68
2023-10-13T12:47:10.730Z,29.66
2023-10-13T12:49:53.449Z,29.62
2023-10-13T12:52:21.555Z,29.58
2023-10-13T12:54:59.678Z,29.55
2023-10-13T12:57:27.729Z,29.46
2023-10-13T12:59:56.987Z,29.37
2023-10-13T13:02:26.419Z,29.37
2023-10-13T13:04:58.137Z,29.28
2023-10-13T13:07:30.485Z,29.23
2023-10-13T13:10:01.067Z,29.16
2023-10-13T13:12:29.360Z,29.14
2023-10-13T13:14:58.487Z,29.03
2023-10-13T13:17:26.345Z,28.93
2023-10-13T13:19:54.868Z,28.88
2023-10-13T13:22:22.807Z,28.84
2023-10-13T13:24:50.514Z,28.92
2023-10-13T13:27:21.002Z,28.78
2023-10-13T13:29:48.858Z,28.86
2023-10-13T13:32:20.227Z,28.82
2023-10-13T13:34:56.227Z,28.86
2023-10-13T13:37:28.517Z,28.82
2023-10-13T13:39:57.586Z,28.78
2023-10-13T13:42:25.339Z,28.74
2023-10-13T13:45:00.091Z,28.63
2023-10-13T13:47:29.317Z,28.50
2023-10-13T13:49:57.306Z,28.43
2023-10-13T13:52:34.961Z,28.38
2023-10-13T13:55:04.269Z,28.34
2023-10-13T13:57:32.206Z,28.32
2023-10-13T13:59:59.979Z,28.19
2023-10-13T14:02:29.837Z,28.16
2023-10-13T14:04:57.908Z,28.13
2023-10-13T14:07:25.898Z,28.11
2023-10-13T14:09:53.929Z,28.09
2023-10-13T14:12:42.696Z,28.10
2023-10-13T14:15:21.134Z,28.04
2023-10-13T14:17:50.888Z,28.07
2023-10-13T14:20:20.533Z,28.03
2023-10-13T14:22:50.565Z,28.00
2023-10-13T14:25:19.482Z,27.95
2023-10-13T14:27:47.572Z,27.98
2023-10-13T14:30:20.935Z,27.94
2023-10-13T14:32:50.669Z,27.94
2023-10-13T14:35:18.628Z,27.91
2023-10-13T14:37:46.360Z,27.89
2023-10-13T14:40:16.301Z,27.85
2023-10-13T14:42:44.455Z,27.78
2023-10-13T14:45:14.588Z,27.75
2023-10-13T14:47:42.807Z,27.72
2023-10-13T14:50:18.660Z,27.74
2023-10-13T14:52:46.503Z,27.71
2023-10-13T14:55:20.811Z,27.63
2023-10-13T14:57:50.735Z,27.66
2023-10-13T15:00:25.862Z,27.64
2023-10-13T15:02:54.215Z,27.64
2023-10-13T15:05:23.604Z,27.62
2023-10-13T15:07:52.634Z,27.70
2023-10-13T15:10:20.616Z,27.66
2023-10-13T15:12:49.907Z,27.62
2023-10-13T15:15:20.150Z,27.57
2023-10-13T15:17:48.193Z,27.61
2023-10-13T15:20:17.960Z,27.59
2023-10-13T15:22:48.784Z,27.52
2023-10-13T15:25:29.457Z,27.55
2023-10-13T15:28:03.797Z,27.51
2023-10-13T15:30:45.450Z,27.51
2023-10-13T15:33:14.218Z,27.46
2023-10-13T15:35:43.893Z,27.37
2023-10-13T15:38:14.204Z,27.31
2023-10-13T15:40:45.659Z,27.38
2023-10-13T15:43:13.996Z,27.26
2023-10-13T15:45:43.999Z,27.30
2023-10-13T15:50:43.765Z,27.22
2023-10-13T15:53:14.806Z,27.17
2023-10-13T15:55:46.783Z,27.14
2023-10-13T15:58:14.794Z,27.09
2023-10-13T16:00:42.812Z,27.08
2023-10-13T16:03:13.051Z,27.02
2023-10-13T16:05:43.652Z,27.05
2023-10-13T16:08:13.573Z,27.00
2023-10-13T16:10:41.793Z,26.91
2023-10-13T16:13:16.347Z,26.90
2023-10-13T16:15:44.842Z,26.85
2023-10-13T16:18:12.770Z,26.81
2023-10-13T16:20:41.172Z,26.75
2023-10-13T16:23:09.512Z,26.76
2023-10-13T16:25:38.741Z,26.71
2023-10-13T16:28:08.857Z,26.70
2023-10-13T16:30:38.419Z,26.70
2023-10-13T16:33:06.464Z,26.69
2023-10-13T16:35:34.941Z,26.67
2023-10-13T16:38:07.542Z,26.59
2023-10-13T16:40:35.629Z,26.61
2023-10-13T16:43:05.228Z,26.59
2023-10-13T16:45:34.136Z,26.60
2023-10-13T16:48:02.248Z,26.58
2023-10-13T16:50:31.065Z,26.54
2023-10-13T16:52:59.378Z,26.36
2023-10-13T16:55:30.136Z,26.42
2023-10-13T16:57:58.191Z,26.45
2023-10-13T17:00:27.677Z,26.40
2023-10-13T17:02:55.921Z,26.40
2023-10-13T17:05:28.862Z,26.38
2023-10-13T17:08:00.373Z,26.22
2023-10-13T17:10:30.071Z,26.30
2023-10-13T17:12:58.726Z,26.24
2023-10-13T17:15:33.087Z,26.22
2023-10-13T17:18:01.008Z,26.19
2023-10-13T17:20:29.088Z,26.18
2023-10-13T17:22:57.392Z,26.19
2023-10-13T17:25:26.590Z,26.15
2023-10-13T17:27:54.684Z,26.02
2023-10-13T17:30:22.480Z,26.07
2023-10-13T17:32:51.584Z,26.03
2023-10-13T17:35:19.599Z,25.97
2023-10-13T17:37:48.268Z,25.97
2023-10-13T17:40:17.519Z,25.95
2023-10-13T17:42:48.260Z,25.91
2023-10-13T17:45:16.195Z,25.89
2023-10-13T17:47:44.609Z,25.84
2023-10-13T17:50:14.504Z,25.86
2023-10-13T17:52:43.435Z,25.85
2023-10-13T17:55:12.215Z,25.84
2023-10-13T17:57:41.462Z,25.84
2023-10-13T18:00:16.935Z,25.78
2023-10-13T18:02:44.881Z,25.77
2023-10-13T18:05:14.072Z,25.77
2023-10-13T18:07:42.279Z,25.73
2023-10-13T18:10:13.730Z,25.70
2023-10-13T18:12:41.735Z,25.70
2023-10-13T18:15:10.818Z,25.72
2023-10-13T18:17:40.648Z,25.71
2023-10-13T18:20:11.362Z,25.70
2023-10-13T18:22:40.932Z,25.70
2023-10-13T18:25:13.168Z,25.68
2023-10-13T18:27:43.314Z,25.69
2023-10-13T18:30:13.375Z,25.70
2023-10-13T18:32:42.293Z,25.68
2023-10-13T18:35:12.550Z,25.70
2023-10-13T18:37:43.371Z,25.68
2023-10-13T18:40:13.914Z,25.69
2023-10-13T18:42:44.079Z,25.68
2023-10-13T18:45:12.790Z,25.68
2023-10-13T18:47:41.180Z,25.71
2023-10-13T18:50:09.242Z,25.70
2023-10-13T18:52:37.048Z,25.70
2023-10-13T18:55:08.728Z,25.45
2023-10-13T18:57:36.579Z,25.67
2023-10-13T19:00:07.738Z,25.62
2023-10-13T19:02:35.586Z,25.59
2023-10-13T19:05:04.229Z,25.54
2023-10-13T19:07:32.165Z,24.88
2023-10-13T19:10:00.056Z,25.51
2023-10-13T19:12:29.251Z,25.47
2023-10-13T19:14:57.257Z,25.44
2023-10-13T19:17:25.509Z,25.41
2023-10-13T19:19:53.286Z,25.36
2023-10-13T19:22:21.400Z,25.34
2023-10-13T19:24:49.267Z,25.31
2023-10-13T19:27:17.003Z,25.27
2023-10-13T19:29:46.143Z,25.26
2023-10-13T19:32:13.958Z,25.24
2023-10-13T19:34:43.154Z,25.20
2023-10-13T19:37:11.015Z,25.18
2023-10-13T19:39:43.423Z,25.22
2023-10-13T19:42:11.750Z,25.19
2023-10-13T19:44:41.263Z,25.20
2023-10-13T19:47:14.931Z,25.19
2023-10-13T19:49:44.513Z,25.17
2023-10-13T19:52:12.473Z,25.22
2023-10-13T19:54:40.936Z,25.23
2023-10-13T19:57:12.233Z,25.22
2023-10-13T19:59:42.172Z,25.20
2023-10-13T20:02:11.429Z,25.17
2023-10-13T20:04:39.289Z,25.11
2023-10-13T20:07:07.382Z,25.12
2023-10-13T20:09:35.197Z,25.09
2023-10-13T20:12:03.755Z,25.01
2023-10-13T20:14:33.487Z,24.99
2023-10-13T20:17:01.279Z,24.95
2023-10-13T20:19:30.482Z,24.88
2023-10-13T20:21:58.829Z,24.84
2023-10-13T20:24:26.608Z,24.72
2023-10-13T20:26:54.443Z,24.71
2023-10-13T20:29:22.252Z,24.63
2023-10-13T20:31:50.607Z,24.52
2023-10-13T20:34:20.571Z,24.59
2023-10-13T20:36:50.111Z,24.53
2023-10-13T20:39:25.431Z,24.46
2023-10-13T20:41:53.317Z,24.35
2023-10-13T20:44:21.077Z,24.26
2023-10-13T20:46:48.960Z,24.20
2023-10-13T20:49:16.898Z,24.25
2023-10-13T20:51:44.804Z,24.18
2023-10-13T20:54:14.283Z,24.17
2023-10-13T20:56:42.934Z,24.13
2023-10-13T20:59:15.408Z,24.06
2023-10-13T21:01:43.692Z,24.10
2023-10-13T21:04:12.963Z,24.07
2023-10-13T21:06:45.548Z,24.02
2023-10-13T21:09:21.507Z,23.98
2023-10-13T21:11:49.934Z,23.93
2023-10-13T21:14:17.892Z,23.94
2023-10-13T21:16:45.712Z,23.93
2023-10-13T21:19:13.622Z,23.93
2023-10-13T21:21:41.881Z,23.90
2023-10-13T21:24:11.802Z,23.95
2023-10-13T21:26:41.110Z,23.93
2023-10-13T21:29:09.891Z,23.93
2023-10-13T21:31:38.531Z,23.92
2023-10-13T21:34:08.202Z,23.91
2023-10-13T21:36:38.086Z,23.96
2023-10-13T21:39:06.162Z,23.80
2023-10-13T21:41:37.997Z,23.95
2023-10-13T21:44:07.998Z,23.94
2023-10-13T21:46:36.972Z,23.98
2023-10-13T21:49:08.130Z,23.96
2023-10-13T21:51:36.681Z,23.87
2023-10-13T21:54:08.580Z,23.83
2023-10-13T21:56:36.883Z,23.88
2023-10-13T21:59:07.132Z,23.84
2023-10-13T22:04:11.535Z,23.90
2023-10-13T22:06:41.307Z,23.65
2023-10-13T22:09:10.927Z,23.65
2023-10-13T22:11:39.387Z,23.89
2023-10-13T22:14:07.624Z,23.53
2023-10-13T22:16:37.811Z,23.92
2023-10-13T22:19:05.709Z,23.90
2023-10-13T22:21:33.556Z,23.90
2023-10-13T22:24:02.024Z,23.89
2023-10-13T22:26:31.201Z,23.89
2023-10-13T22:28:59.929Z,23.86
2023-10-13T22:31:28.435Z,23.90
2023-10-13T22:33:57.661Z,23.89
2023-10-13T22:36:25.687Z,23.87
2023-10-13T22:38:56.991Z,23.57
2023-10-13T22:41:25.058Z,23.90
2023-10-13T22:43:52.759Z,23.86
2023-10-13T22:46:20.700Z,23.82
2023-10-13T22:48:49.262Z,23.84
2023-10-13T22:51:18.602Z,23.84
2023-10-13T22:53:47.063Z,23.81
2023-10-13T22:56:18.610Z,23.78
2023-10-13T22:58:46.997Z,23.80
2023-10-13T23:01:18.824Z,23.76
2023-10-13T23:03:56.893Z,23.75
2023-10-13T23:06:31.556Z,23.67
2023-10-13T23:11:34.388Z,23.67
2023-10-13T23:14:03.033Z,23.67
2023-10-13T23:16:33.552Z,23.62
2023-10-13T23:19:01.705Z,23.61
2023-10-13T23:21:31.317Z,23.58
2023-10-13T23:23:59.998Z,23.57
2023-10-13T23:26:27.970Z,23.56
2023-10-13T23:28:55.681Z,23.56
2023-10-13T23:31:24.917Z,23.55
2023-10-13T23:33:54.643Z,23.55
2023-10-13T23:36:22.855Z,23.54
2023-10-13T23:38:56.486Z,23.55
2023-10-13T23:41:28.379Z,23.55
2023-10-13T23:43:59.450Z,23.60
2023-10-13T23:46:28.053Z,23.60
2023-10-13T23:48:56.154Z,23.65
2023-10-13T23:51:28.275Z,23.64
2023-10-13T23:54:01.866Z,23.66
2023-10-13T23:56:31.066Z,23.66
2023-10-13T23:59:06.647Z,23.66
